createdAt,value
2019-05-13T00:00:44.593Z,86.00
2019-05-13T00:03:13.750Z,85.20
2019-05-13T00:05:44.574Z,85.30
2019-05-13T00:08:14.002Z,85.00
2019-05-13T00:10:43.765Z,84.90
2019-05-13T00:13:14.463Z,85.30
2019-05-13T00:15:44.275Z,85.80
2019-05-13T00:18:14.381Z,86.10
2019-05-13T00:23:59.713Z,85.60
2019-05-13T00:26:28.448Z,85.60
2019-05-13T00:28:57.192Z,85.80
2019-05-13T00:31:25.907Z,86.00
2019-05-13T00:33:54.627Z,86.20
2019-05-13T00:36:24.305Z,86.10
2019-05-13T00:38:53.524Z,86.00
2019-05-13T00:41:24.415Z,86.70
2019-05-13T00:43:53.257Z,86.30
2019-05-13T00:46:23.618Z,86.40
2019-05-13T00:48:54.067Z,86.70
2019-05-13T00:51:24.380Z,86.70
2019-05-13T00:56:57.392Z,86.40
2019-05-13T00:59:26.136Z,86.10
2019-05-13T01:01:54.855Z,85.80
2019-05-13T01:04:23.428Z,86.30
2019-05-13T01:06:53.747Z,85.90
2019-05-13T01:21:54.154Z,87.00
2019-05-13T01:24:24.412Z,87.50
2019-05-13T01:26:54.170Z,87.80
2019-05-13T01:29:23.775Z,87.80
2019-05-13T01:31:53.830Z,88.00
2019-05-13T01:34:23.538Z,88.20
2019-05-13T01:36:53.579Z,87.80
2019-05-13T01:42:50.503Z,88.10
2019-05-13T01:45:19.385Z,88.00
2019-05-13T01:47:48.048Z,88.10
2019-05-13T01:50:16.685Z,88.70
2019-05-13T01:52:45.485Z,88.30
2019-05-13T01:55:14.690Z,88.90
2019-05-13T01:57:44.278Z,88.40
2019-05-13T02:00:14.297Z,88.60
2019-05-13T02:02:44.526Z,88.20
2019-05-13T02:05:14.187Z,88.30
2019-05-13T02:07:56.766Z,88.60
2019-05-13T02:10:15.330Z,88.90
2019-05-13T02:12:44.581Z,88.60
2019-05-13T02:15:14.705Z,88.90
2019-05-13T02:17:44.663Z,89.30
2019-05-13T02:20:14.810Z,89.20
2019-05-13T02:22:44.721Z,88.30
2019-05-13T02:25:13.877Z,88.90
2019-05-13T02:27:43.915Z,89.90
2019-05-13T02:30:16.112Z,90.20
2019-05-13T02:32:43.536Z,90.30
2019-05-13T02:35:13.908Z,90.50
2019-05-13T02:37:43.822Z,90.50
2019-05-13T02:40:53.013Z,90.50
2019-05-13T02:46:26.548Z,90.30
2019-05-13T02:48:55.327Z,90.40
2019-05-13T02:51:24.235Z,90.30
2019-05-13T02:53:53.026Z,90.00
2019-05-13T03:00:05.884Z,89.40
2019-05-13T03:02:34.685Z,88.80
2019-05-13T03:05:04.281Z,89.00
2019-05-13T03:07:33.461Z,88.90
2019-05-13T03:16:51.777Z,89.70
2019-05-13T03:19:22.398Z,89.70
2019-05-13T03:21:52.458Z,90.00
2019-05-13T03:24:22.748Z,90.00
2019-05-13T03:26:53.223Z,90.10
2019-05-13T03:29:22.245Z,89.80
2019-05-13T03:31:56.892Z,89.40
2019-05-13T03:34:27.267Z,88.80
2019-05-13T03:36:58.170Z,89.10
2019-05-13T03:39:27.917Z,89.20
2019-05-13T03:41:58.367Z,89.50
2019-05-13T03:44:32.515Z,89.90
2019-05-13T03:47:03.886Z,90.00
2019-05-13T03:49:42.218Z,90.20
2019-05-13T03:52:13.272Z,90.00
2019-05-13T03:54:43.365Z,90.10
2019-05-13T03:57:12.583Z,90.00
2019-05-13T03:59:43.649Z,89.60
2019-05-13T04:02:12.978Z,89.60
2019-05-13T04:04:42.438Z,89.60
2019-05-13T04:07:13.003Z,89.20
2019-05-13T04:09:42.695Z,89.50
2019-05-13T04:12:13.480Z,89.60
2019-05-13T04:14:42.619Z,89.60
2019-05-13T04:17:12.663Z,89.70
2019-05-13T04:19:42.393Z,89.70
2019-05-13T04:22:12.996Z,89.90
2019-05-13T04:24:42.837Z,89.60
2019-05-13T04:27:13.183Z,89.70
2019-05-13T04:29:43.390Z,89.50
2019-05-13T04:32:12.912Z,89.70
2019-05-13T04:34:42.525Z,90.00
2019-05-13T04:37:13.223Z,90.20
2019-05-13T04:39:51.135Z,90.10
2019-05-13T04:42:12.642Z,90.10
2019-05-13T04:44:42.747Z,89.80
2019-05-13T04:47:12.718Z,89.30
2019-05-13T04:49:42.806Z,89.50
2019-05-13T04:52:13.354Z,89.70
2019-05-13T04:54:43.734Z,90.10
2019-05-13T04:57:12.986Z,90.10
2019-05-13T04:59:44.493Z,90.10
2019-05-13T05:02:22.314Z,90.20
2019-05-13T05:04:57.051Z,90.40
2019-05-13T05:07:44.921Z,90.50
2019-05-13T05:10:29.074Z,90.40
2019-05-13T05:13:24.690Z,90.10
2019-05-13T05:16:21.827Z,90.20
2019-05-13T05:19:09.058Z,90.10
2019-05-13T05:21:55.713Z,90.40
2019-05-13T05:24:54.745Z,90.50
2019-05-13T05:27:58.371Z,90.80
2019-05-13T05:31:02.294Z,90.50
2019-05-13T05:36:45.022Z,90.40
2019-05-13T05:39:27.269Z,90.30
2019-05-13T05:41:58.814Z,90.50
2019-05-13T05:44:32.415Z,90.50
2019-05-13T05:47:03.192Z,90.30
2019-05-13T05:49:32.367Z,90.40
2019-05-13T05:52:06.641Z,90.70
2019-05-13T05:54:39.316Z,90.50
2019-05-13T05:57:12.184Z,90.20
2019-05-13T05:59:42.622Z,90.10
2019-05-13T06:02:12.138Z,89.20
2019-05-13T06:04:43.306Z,88.90
2019-05-13T06:07:13.770Z,88.90
2019-05-13T06:09:42.646Z,89.20
2019-05-13T06:12:12.538Z,88.80
2019-05-13T06:14:42.401Z,89.00
2019-05-13T06:17:11.600Z,89.40
2019-05-13T06:19:41.850Z,89.00
2019-05-13T06:22:12.344Z,88.60
2019-05-13T06:24:42.302Z,88.00
2019-05-13T06:27:11.851Z,87.60
2019-05-13T06:29:42.284Z,87.10
2019-05-13T06:32:19.212Z,87.30
2019-05-13T06:34:42.070Z,86.70
2019-05-13T06:37:11.551Z,85.80
2019-05-13T06:39:41.973Z,86.30
2019-05-13T06:42:11.627Z,87.00
2019-05-13T06:44:42.083Z,86.20
2019-05-13T06:47:11.413Z,86.20
2019-05-13T06:49:42.618Z,85.10
2019-05-13T06:52:11.982Z,85.00
2019-05-13T06:54:41.875Z,84.80
2019-05-13T06:57:13.475Z,84.60
2019-05-13T06:59:42.022Z,83.40
2019-05-13T07:02:12.405Z,83.30
2019-05-13T07:04:41.598Z,82.60
2019-05-13T07:07:16.102Z,83.20
2019-05-13T07:09:42.691Z,82.80
2019-05-13T07:12:11.489Z,82.40
2019-05-13T07:14:41.341Z,82.20
2019-05-13T07:17:12.387Z,81.20
2019-05-13T07:19:41.480Z,80.50
2019-05-13T07:22:11.550Z,80.20
2019-05-13T07:24:41.483Z,80.70
2019-05-13T07:27:12.192Z,80.40
2019-05-13T07:29:42.368Z,79.70
2019-05-13T07:32:12.035Z,78.90
2019-05-13T07:34:43.982Z,79.60
2019-05-13T07:37:11.493Z,79.70
2019-05-13T07:39:41.850Z,78.00
2019-05-13T07:42:12.321Z,78.00
2019-05-13T07:44:41.678Z,77.00
2019-05-13T07:47:11.604Z,76.70
2019-05-13T07:52:31.936Z,76.00
2019-05-13T07:55:01.633Z,74.30
2019-05-13T07:57:31.943Z,74.20
2019-05-13T08:00:02.058Z,72.90
2019-05-13T08:02:31.927Z,71.70
2019-05-13T08:05:02.379Z,73.00
2019-05-13T08:07:31.624Z,69.80
2019-05-13T08:10:03.392Z,68.60
2019-05-13T08:12:31.889Z,69.70
2019-05-13T08:15:03.235Z,65.10
2019-05-13T08:17:32.750Z,67.60
2019-05-13T08:20:02.830Z,66.50
2019-05-13T08:22:32.059Z,66.00
2019-05-13T08:25:03.018Z,65.20
2019-05-13T08:27:34.989Z,63.40
2019-05-13T08:30:01.936Z,63.30
2019-05-13T08:32:31.444Z,61.90
2019-05-13T08:35:06.511Z,62.20
2019-05-13T08:37:32.097Z,60.30
2019-05-13T08:40:01.589Z,61.20
2019-05-13T08:42:32.239Z,59.60
2019-05-13T08:45:02.014Z,59.20
2019-05-13T08:47:31.461Z,56.20
2019-05-13T08:50:03.971Z,55.70
2019-05-13T08:52:31.387Z,55.00
2019-05-13T08:55:01.417Z,54.50
2019-05-13T08:57:31.581Z,55.40
2019-05-13T09:00:05.014Z,56.20
2019-05-13T09:02:31.402Z,52.90
2019-05-13T09:05:02.347Z,52.30
2019-05-13T09:07:32.076Z,51.50
2019-05-13T09:10:01.894Z,50.50
2019-05-13T09:12:35.640Z,49.20
2019-05-13T09:15:03.292Z,51.50
2019-05-13T09:17:31.921Z,51.00
2019-05-13T09:20:02.777Z,51.70
2019-05-13T09:22:31.899Z,50.10
2019-05-13T09:25:02.091Z,48.90
2019-05-13T09:27:31.899Z,48.80
2019-05-13T09:30:02.718Z,49.20
2019-05-13T09:32:31.797Z,49.00
2019-05-13T09:35:03.026Z,49.40
2019-05-13T09:37:31.757Z,47.30
2019-05-13T09:40:02.373Z,46.80
2019-05-13T09:42:47.572Z,44.10
2019-05-13T09:45:02.176Z,45.00
2019-05-13T09:47:32.164Z,45.30
2019-05-13T09:50:01.081Z,45.70
2019-05-13T09:52:31.877Z,45.40
2019-05-13T09:55:02.864Z,46.10
2019-05-13T09:57:32.139Z,46.10
2019-05-13T10:00:01.664Z,45.50
2019-05-13T10:02:32.283Z,45.90
2019-05-13T10:05:02.229Z,46.00
2019-05-13T10:07:31.853Z,44.70
2019-05-13T10:10:01.764Z,46.10
2019-05-13T10:12:32.006Z,46.10
2019-05-13T10:15:02.012Z,45.50
2019-05-13T10:17:31.900Z,45.00
2019-05-13T10:20:00.949Z,44.90
2019-05-13T10:22:31.817Z,45.00
2019-05-13T10:25:02.515Z,44.00
2019-05-13T10:27:32.395Z,44.00
2019-05-13T10:30:01.422Z,45.10
2019-05-13T10:32:32.508Z,43.70
2019-05-13T10:35:03.214Z,43.70
2019-05-13T10:37:32.279Z,43.10
2019-05-13T10:40:02.291Z,42.50
2019-05-13T10:42:31.263Z,43.30
2019-05-13T10:45:02.487Z,41.20
2019-05-13T10:47:30.351Z,43.00
2019-05-13T10:50:02.545Z,42.80
2019-05-13T10:52:31.562Z,40.30
2019-05-13T10:55:02.036Z,40.10
2019-05-13T10:57:31.936Z,43.20
2019-05-13T11:00:03.135Z,41.40
2019-05-13T11:02:32.743Z,39.20
2019-05-13T11:05:03.216Z,40.70
2019-05-13T11:07:32.138Z,40.80
2019-05-13T11:10:02.288Z,41.00
2019-05-13T11:12:33.499Z,40.30
2019-05-13T11:15:02.524Z,40.60
2019-05-13T11:17:33.170Z,41.10
2019-05-13T11:20:03.413Z,39.60
2019-05-13T11:22:32.750Z,38.70
2019-05-13T11:25:02.546Z,39.40
2019-05-13T11:27:32.402Z,38.30
2019-05-13T11:30:05.625Z,36.90
2019-05-13T11:32:31.815Z,37.90
2019-05-13T11:35:01.863Z,37.90
2019-05-13T11:37:32.051Z,37.40
2019-05-13T11:40:02.804Z,36.50
2019-05-13T11:42:32.744Z,36.70
2019-05-13T11:45:01.759Z,35.60
2019-05-13T11:47:32.248Z,35.40
2019-05-13T11:50:02.353Z,34.10
2019-05-13T11:52:31.575Z,36.40
2019-05-13T11:55:02.648Z,35.00
2019-05-13T11:57:31.582Z,34.60
2019-05-13T12:00:02.534Z,35.00
2019-05-13T12:02:32.715Z,33.80
2019-05-13T12:05:03.764Z,34.10
2019-05-13T12:07:32.966Z,32.50
2019-05-13T12:10:02.632Z,32.60
2019-05-13T12:12:34.447Z,32.90
2019-05-13T12:15:26.478Z,33.10
2019-05-13T12:17:34.040Z,32.70
2019-05-13T12:20:03.297Z,32.50
2019-05-13T12:22:32.397Z,33.70
2019-05-13T12:25:02.112Z,35.30
2019-05-13T12:27:31.745Z,34.70
2019-05-13T12:30:03.078Z,34.70
2019-05-13T12:32:32.284Z,33.40
2019-05-13T12:35:03.486Z,32.90
2019-05-13T12:37:33.522Z,33.20
2019-05-13T12:40:03.144Z,32.80
2019-05-13T12:42:33.765Z,33.40
2019-05-13T12:45:09.741Z,32.40
2019-05-13T12:47:32.674Z,32.70
2019-05-13T12:50:03.205Z,33.90
2019-05-13T12:52:32.498Z,31.80
2019-05-13T12:55:03.269Z,31.90
2019-05-13T12:57:32.471Z,32.60
2019-05-13T13:00:02.369Z,32.10
2019-05-13T13:02:32.584Z,31.50
2019-05-13T13:07:37.539Z,31.60
2019-05-13T13:10:02.248Z,32.20
2019-05-13T13:12:36.059Z,31.70
2019-05-13T13:15:20.396Z,32.40
2019-05-13T13:17:31.734Z,31.90
2019-05-13T13:20:06.211Z,31.80
2019-05-13T13:22:32.131Z,31.20
2019-05-13T13:25:05.013Z,31.80
2019-05-13T13:28:00.048Z,32.50
2019-05-13T13:30:04.390Z,31.70
2019-05-13T13:32:33.111Z,31.40
2019-05-13T13:35:03.739Z,31.20
2019-05-13T13:37:34.973Z,31.20
2019-05-13T13:40:03.374Z,31.60
2019-05-13T13:42:33.572Z,30.40
2019-05-13T13:45:06.048Z,30.40
2019-05-13T13:47:33.411Z,30.20
2019-05-13T13:50:02.319Z,31.50
2019-05-13T13:52:33.479Z,29.90
2019-05-13T13:55:08.235Z,30.90
2019-05-13T13:57:33.653Z,32.10
2019-05-13T14:00:26.365Z,31.30
2019-05-13T14:02:37.087Z,31.40
2019-05-13T14:05:05.579Z,30.70
2019-05-13T14:06:35.512Z,32.10
2019-05-13T14:07:38.486Z,30.50
2019-05-13T14:10:07.271Z,30.60
2019-05-13T14:12:36.013Z,30.60
2019-05-13T14:15:05.852Z,31.90
2019-05-13T14:17:34.441Z,31.20
2019-05-13T14:20:03.865Z,31.20
2019-05-13T14:22:32.736Z,30.60
2019-05-13T14:25:01.524Z,30.80
2019-05-13T14:27:31.447Z,31.80
2019-05-13T14:30:01.337Z,31.70
2019-05-13T14:32:32.082Z,31.60
2019-05-13T14:35:02.487Z,31.10
2019-05-13T14:37:31.811Z,32.50
2019-05-13T14:40:02.452Z,31.80
2019-05-13T14:42:32.240Z,31.40
2019-05-13T14:45:02.079Z,31.30
2019-05-13T14:47:32.125Z,32.90
2019-05-13T14:50:02.090Z,31.50
2019-05-13T14:52:32.278Z,31.60
2019-05-13T14:55:02.226Z,30.20
2019-05-13T14:57:32.278Z,32.60
2019-05-13T15:00:02.491Z,32.50
2019-05-13T15:02:32.104Z,33.00
2019-05-13T15:05:02.613Z,32.20
2019-05-13T15:07:32.174Z,31.40
2019-05-13T15:10:02.408Z,31.60
2019-05-13T15:12:32.300Z,30.70
2019-05-13T15:15:01.630Z,31.60
2019-05-13T15:17:32.442Z,31.20
2019-05-13T15:20:01.880Z,32.60
2019-05-13T15:22:31.943Z,31.60
2019-05-13T15:25:02.753Z,31.90
2019-05-13T15:27:31.695Z,31.70
2019-05-13T15:30:16.204Z,31.80
2019-05-13T15:32:32.536Z,32.90
2019-05-13T15:35:02.134Z,33.30
2019-05-13T15:37:32.122Z,32.70
2019-05-13T15:40:02.336Z,32.80
2019-05-13T15:42:31.917Z,33.50
2019-05-13T15:45:03.799Z,31.40
2019-05-13T15:47:34.400Z,32.80
2019-05-13T15:50:03.403Z,32.90
2019-05-13T15:52:37.661Z,33.30
2019-05-13T15:55:11.913Z,33.40
2019-05-13T15:57:39.336Z,33.40
2019-05-13T16:00:12.349Z,34.30
2019-05-13T16:02:42.168Z,33.40
2019-05-13T16:05:11.987Z,32.90
2019-05-13T16:07:41.783Z,33.20
2019-05-13T16:10:11.476Z,33.30
2019-05-13T16:12:40.261Z,33.20
2019-05-13T16:15:55.654Z,33.00
2019-05-13T16:17:44.090Z,34.70
2019-05-13T16:20:11.326Z,34.20
2019-05-13T16:22:41.975Z,34.10
2019-05-13T16:25:11.714Z,33.10
2019-05-13T16:27:41.640Z,33.80
2019-05-13T16:30:11.913Z,34.50
2019-05-13T16:32:42.428Z,33.50
2019-05-13T16:35:13.664Z,34.80
2019-05-13T16:37:42.458Z,34.80
2019-05-13T16:40:14.764Z,34.60
2019-05-13T16:42:43.550Z,35.00
2019-05-13T16:45:12.848Z,35.70
2019-05-13T16:47:55.789Z,35.50
2019-05-13T16:50:15.623Z,34.90
2019-05-13T16:52:44.576Z,35.50
2019-05-13T16:55:13.460Z,36.00
2019-05-13T16:57:45.115Z,36.30
2019-05-13T17:03:08.648Z,37.00
2019-05-13T17:05:37.361Z,37.60
2019-05-13T17:08:06.250Z,37.70
2019-05-13T17:10:35.513Z,37.90
2019-05-13T17:13:04.446Z,38.10
2019-05-13T17:15:33.301Z,38.50
2019-05-13T17:18:11.731Z,39.10
2019-05-13T17:20:32.537Z,39.50
2019-05-13T17:23:01.915Z,40.00
2019-05-13T17:25:30.852Z,40.00
2019-05-13T17:28:02.494Z,40.40
2019-05-13T17:30:32.048Z,40.10
2019-05-13T17:33:02.264Z,41.60
2019-05-13T17:35:31.562Z,40.60
2019-05-13T17:38:01.906Z,40.80
2019-05-13T17:40:31.514Z,42.30
2019-05-13T17:43:00.248Z,45.10
2019-05-13T17:45:31.159Z,46.50
2019-05-13T17:48:05.823Z,47.90
2019-05-13T17:50:31.491Z,48.80
2019-05-13T17:53:02.028Z,49.80
2019-05-13T17:55:30.889Z,50.40
2019-05-13T17:58:01.453Z,50.90
2019-05-13T18:00:32.281Z,51.30
2019-05-13T18:03:01.857Z,52.20
2019-05-13T18:05:31.468Z,52.60
2019-05-13T18:08:01.871Z,52.80
2019-05-13T18:10:31.842Z,53.20
2019-05-13T18:13:01.785Z,53.50
2019-05-13T18:15:31.356Z,53.40
2019-05-13T18:18:01.463Z,54.10
2019-05-13T18:20:32.207Z,54.10
2019-05-13T18:23:02.310Z,54.20
2019-05-13T18:25:32.415Z,54.80
2019-05-13T18:28:02.993Z,55.20
2019-05-13T18:30:32.100Z,55.30
2019-05-13T18:33:03.977Z,54.90
2019-05-13T18:35:32.817Z,55.30
2019-05-13T18:38:01.691Z,55.40
2019-05-13T18:40:47.183Z,55.50
2019-05-13T18:43:15.825Z,56.00
2019-05-13T18:45:46.174Z,56.60
2019-05-13T18:48:16.559Z,57.00
2019-05-13T18:50:45.129Z,57.60
2019-05-13T18:53:14.033Z,57.50
2019-05-13T18:55:43.094Z,57.60
2019-05-13T18:58:11.826Z,57.60
2019-05-13T19:00:41.596Z,58.90
2019-05-13T19:03:12.408Z,58.20
2019-05-13T19:05:42.241Z,58.40
2019-05-13T19:08:12.334Z,59.30
2019-05-13T19:10:52.286Z,59.10
2019-05-13T19:13:21.945Z,59.30
2019-05-13T19:15:51.684Z,59.70
2019-05-13T19:18:21.460Z,60.50
2019-05-13T19:20:51.721Z,61.00
2019-05-13T19:23:20.766Z,61.50
2019-05-13T19:25:52.919Z,62.10
2019-05-13T19:28:22.351Z,62.70
2019-05-13T19:30:51.787Z,63.60
2019-05-13T19:33:22.088Z,64.20
2019-05-13T19:35:51.846Z,64.40
2019-05-13T19:38:21.238Z,65.40
2019-05-13T19:40:49.904Z,65.80
2019-05-13T19:43:24.769Z,68.20
2019-05-13T19:45:53.650Z,69.40
2019-05-13T19:48:22.618Z,70.20
2019-05-13T19:50:52.142Z,70.30
2019-05-13T19:53:21.396Z,71.40
2019-05-13T19:55:51.937Z,71.60
2019-05-13T19:58:21.634Z,72.40
2019-05-13T20:00:53.019Z,72.30
2019-05-13T20:03:22.608Z,73.10
2019-05-13T20:05:51.481Z,73.40
2019-05-13T20:08:21.175Z,73.50
2019-05-13T20:10:51.480Z,73.70
2019-05-13T20:13:22.413Z,74.10
2019-05-13T20:15:51.831Z,74.30
2019-05-13T20:18:22.907Z,75.00
2019-05-13T20:20:51.921Z,74.40
2019-05-13T20:23:21.285Z,75.40
2019-05-13T20:25:53.741Z,75.40
2019-05-13T20:28:22.505Z,75.80
2019-05-13T20:30:51.269Z,76.20
2019-05-13T20:33:22.143Z,76.10
2019-05-13T20:35:50.761Z,76.20
2019-05-13T20:38:19.403Z,77.10
2019-05-13T20:40:51.935Z,77.20
2019-05-13T20:43:22.528Z,77.80
2019-05-13T20:45:51.929Z,77.90
2019-05-13T20:48:21.294Z,77.60
2019-05-13T20:50:51.943Z,77.90
2019-05-13T20:53:26.649Z,77.80
2019-05-13T20:55:55.453Z,77.90
2019-05-13T20:58:24.176Z,77.90
2019-05-13T21:00:53.232Z,77.20
2019-05-13T21:03:22.225Z,76.80
2019-05-13T21:05:52.027Z,77.60
2019-05-13T21:08:21.741Z,77.50
2019-05-13T21:10:51.705Z,77.60
2019-05-13T21:13:21.211Z,77.80
2019-05-13T21:15:52.022Z,78.10
2019-05-13T21:18:22.192Z,78.10
2019-05-13T21:20:53.439Z,78.00
2019-05-13T21:23:22.199Z,78.00
2019-05-13T21:25:51.146Z,78.60
2019-05-13T21:28:22.030Z,78.70
2019-05-13T21:30:51.447Z,78.40
2019-05-13T21:33:22.163Z,78.50
2019-05-13T21:35:51.166Z,78.90
2019-05-13T21:38:22.227Z,79.50
2019-05-13T21:40:52.279Z,79.40
2019-05-13T21:43:21.698Z,78.80
2019-05-13T21:45:52.289Z,79.20
2019-05-13T21:48:25.323Z,80.00
2019-05-13T21:50:54.252Z,80.00
2019-05-13T21:53:24.505Z,79.00
2019-05-13T21:55:53.683Z,79.30
2019-05-13T21:58:22.511Z,79.20
2019-05-13T22:00:52.485Z,79.00
2019-05-13T22:03:21.465Z,78.70
2019-05-13T22:05:51.574Z,79.00
2019-05-13T22:08:21.589Z,79.50
2019-05-13T22:10:52.494Z,79.80
2019-05-13T22:13:21.272Z,79.10
2019-05-13T22:15:52.183Z,79.90
2019-05-13T22:18:20.475Z,80.40
2019-05-13T22:20:51.227Z,79.50
2019-05-13T22:23:19.665Z,79.00
2019-05-13T22:25:48.379Z,79.80
2019-05-13T22:28:17.275Z,79.90
2019-05-13T22:30:45.917Z,80.30
2019-05-13T22:33:21.577Z,80.20
2019-05-13T22:35:52.275Z,80.50
2019-05-13T22:38:21.430Z,80.60
2019-05-13T22:40:52.118Z,80.00
2019-05-13T22:43:21.260Z,80.00
2019-05-13T22:45:51.146Z,80.00
2019-05-13T22:48:22.207Z,79.80
2019-05-13T22:50:52.194Z,79.70
2019-05-13T22:53:21.227Z,79.40
2019-05-13T22:55:51.988Z,79.60
2019-05-13T22:58:22.336Z,80.00
2019-05-13T23:00:51.729Z,80.10
2019-05-13T23:03:21.431Z,80.10
2019-05-13T23:05:52.194Z,79.60
2019-05-13T23:08:23.589Z,78.80
2019-05-13T23:10:52.639Z,80.00
2019-05-13T23:13:21.672Z,79.50
2019-05-13T23:15:51.627Z,79.00
2019-05-13T23:18:22.194Z,79.10
2019-05-13T23:20:51.568Z,79.10
2019-05-13T23:23:22.184Z,78.60
2019-05-13T23:25:51.343Z,78.40
2019-05-13T23:28:21.653Z,79.00
2019-05-13T23:30:51.226Z,78.40
2019-05-13T23:33:22.025Z,78.70
2019-05-13T23:35:51.577Z,78.80
2019-05-13T23:38:21.436Z,78.60
2019-05-13T23:40:51.584Z,79.10
2019-05-13T23:43:21.721Z,79.20
2019-05-13T23:45:51.113Z,78.90
2019-05-13T23:48:21.570Z,78.70
2019-05-13T23:50:52.204Z,78.60
2019-05-13T23:53:21.890Z,78.40
2019-05-13T23:55:51.986Z,78.60
2019-05-13T23:58:21.651Z,79.00
